Time,TemperatureF,DewpointF,PressureIn,WindDirection,WindDirectionDegrees,WindSpeedMPH,WindSpeedGustMPH,Humidity,HourlyPrecipIn,Conditions,Clouds,dailyrainin,SoftwareType,DateUTC
2013-02-13 00:02:00,26.0,21.0,29.84,WSW,253,0.0,0.0,80,0.00,,,0.00,,2013-02-13 06:02:00,
2013-02-13 00:11:00,27.0,23.0,29.84,WNW,296,0.0,0.0,83,0.00,,,0.00,,2013-02-13 06:11:00,
2013-02-13 00:21:00,27.0,23.0,29.84,WNW,296,0.0,0.0,83,0.00,,,0.00,,2013-02-13 06:21:00,
2013-02-13 00:32:00,27.0,22.0,29.84,NNW,341,0.0,0.0,81,0.00,,,0.00,,2013-02-13 06:32:00,
2013-02-13 00:42:00,26.0,21.0,29.84,NW,306,0.0,0.0,80,0.00,,,0.00,,2013-02-13 06:42:00,
2013-02-13 00:52:00,26.0,21.0,29.84,NW,306,0.0,0.0,80,0.00,,,0.00,,2013-02-13 06:52:00,
2013-02-13 01:02:00,26.0,21.0,29.84,NW,309,0.0,0.0,80,0.00,,,0.00,,2013-02-13 07:02:00,
2013-02-13 01:11:00,24.0,18.0,29.81,WNW,297,0.0,0.0,79,0.00,,,0.00,,2013-02-13 07:11:00,
2013-02-13 01:21:00,24.0,18.0,29.81,WNW,297,0.0,0.0,79,0.00,,,0.00,,2013-02-13 07:21:00,
2013-02-13 01:32:00,24.0,18.0,29.81,WNW,285,0.0,0.0,79,0.00,,,0.00,,2013-02-13 07:32:00,
2013-02-13 01:42:00,24.0,19.0,29.81,West,276,0.0,0.0,80,0.00,,,0.00,,2013-02-13 07:42:00,
2013-02-13 01:52:00,24.0,19.0,29.81,West,276,0.0,0.0,80,0.00,,,0.00,,2013-02-13 07:52:00,
2013-02-13 02:01:00,24.0,19.0,29.81,West,276,0.0,0.0,80,0.00,,,0.00,,2013-02-13 08:01:00,
2013-02-13 02:11:00,24.0,19.0,29.81,West,276,0.0,0.0,80,0.00,,,0.00,,2013-02-13 08:11:00,
2013-02-13 02:21:00,24.0,19.0,29.81,West,276,0.0,0.0,80,0.00,,,0.00,,2013-02-13 08:21:00,
2013-02-13 02:31:00,24.0,19.0,29.81,West,276,0.0,0.0,80,0.00,,,0.00,,2013-02-13 08:31:00,
2013-02-13 02:43:00,24.0,19.0,29.81,West,276,0.0,0.0,80,0.00,,,0.00,,2013-02-13 08:43:00,
2013-02-13 02:52:00,23.0,18.0,29.81,West,276,0.0,0.0,80,0.00,,,0.00,,2013-02-13 08:52:00,
2013-02-13 03:01:00,23.0,18.0,29.81,West,276,0.0,0.0,80,0.00,,,0.00,,2013-02-13 09:01:00,
2013-02-13 03:11:00,22.0,17.0,29.78,West,276,0.0,0.0,80,0.00,,,0.00,,2013-02-13 09:11:00,
2013-02-13 03:21:00,22.0,17.0,29.78,West,276,0.0,0.0,80,0.00,,,0.00,,2013-02-13 09:21:00,
2013-02-13 03:31:00,22.0,17.0,29.78,West,276,0.0,0.0,81,0.00,,,0.00,,2013-02-13 09:31:00,
2013-02-13 03:41:00,23.0,18.0,29.78,West,276,0.0,0.0,82,0.00,,,0.00,,2013-02-13 09:41:00,
2013-02-13 03:51:00,23.0,18.0,29.78,West,276,0.0,0.0,82,0.00,,,0.00,,2013-02-13 09:51:00,
2013-02-13 04:01:00,23.0,19.0,29.78,West,277,0.0,0.0,83,0.00,,,0.00,,2013-02-13 10:01:00,
2013-02-13 04:11:00,23.0,19.0,29.78,West,271,0.0,0.0,84,0.00,,,0.00,,2013-02-13 10:11:00,
2013-02-13 04:21:00,23.0,19.0,29.78,West,271,0.0,0.0,84,0.00,,,0.00,,2013-02-13 10:21:00,
2013-02-13 04:32:00,23.0,19.0,29.78,West,278,0.0,0.0,84,0.00,,,0.00,,2013-02-13 10:32:00,
2013-02-13 04:41:00,23.0,19.0,29.78,West,275,0.0,0.0,84,0.00,,,0.00,,2013-02-13 10:41:00,
2013-02-13 04:52:00,23.0,19.0,29.78,West,275,0.0,0.0,84,0.00,,,0.00,,2013-02-13 10:52:00,
2013-02-13 05:01:00,22.0,18.0,29.78,West,275,0.0,0.0,84,0.00,,,0.00,,2013-02-13 11:01:00,
2013-02-13 05:11:00,22.0,18.0,29.78,West,275,0.0,0.0,84,0.00,,,0.00,,2013-02-13 11:11:00,
2013-02-13 05:22:00,22.0,18.0,29.78,West,275,0.0,0.0,84,0.00,,,0.00,,2013-02-13 11:22:00,
2013-02-13 05:32:00,22.0,18.0,29.78,West,275,0.0,0.0,83,0.00,,,0.00,,2013-02-13 11:32:00,
2013-02-13 05:42:00,21.0,17.0,29.78,West,275,0.0,0.0,84,0.00,,,0.00,,2013-02-13 11:42:00,
2013-02-13 05:52:00,21.0,17.0,29.78,West,275,0.0,0.0,84,0.00,,,0.00,,2013-02-13 11:52:00,
2013-02-13 06:02:00,21.0,17.0,29.78,West,275,0.0,0.0,83,0.00,,,0.00,,2013-02-13 12:02:00,
2013-02-13 06:11:00,22.0,18.0,29.78,WNW,288,0.0,0.0,84,0.00,,,0.00,,2013-02-13 12:11:00,
2013-02-13 06:21:00,22.0,18.0,29.78,WNW,288,0.0,0.0,84,0.00,,,0.00,,2013-02-13 12:21:00,
2013-02-13 06:32:00,22.0,18.0,29.78,WNW,288,0.0,0.0,85,0.00,,,0.00,,2013-02-13 12:32:00,
2013-02-13 06:42:00,23.0,19.0,29.75,WNW,286,0.0,0.0,86,0.00,,,0.00,,2013-02-13 12:42:00,
2013-02-13 06:52:00,23.0,19.0,29.75,WNW,286,0.0,0.0,86,0.00,,,0.00,,2013-02-13 12:52:00,
2013-02-13 07:02:00,23.0,19.0,29.75,West,267,0.0,0.0,85,0.00,,,0.00,,2013-02-13 13:02:00,
2013-02-13 07:11:00,22.0,18.0,29.75,West,267,0.0,0.0,84,0.00,,,0.00,,2013-02-13 13:11:00,
2013-02-13 07:21:00,22.0,18.0,29.75,West,267,0.0,0.0,84,0.00,,,0.00,,2013-02-13 13:21:00,
2013-02-13 07:32:00,22.0,18.0,29.75,West,267,0.0,0.0,84,0.00,,,0.00,,2013-02-13 13:32:00,
2013-02-13 07:41:00,22.0,18.0,29.75,WSW,248,0.0,0.0,84,0.00,,,0.00,,2013-02-13 13:41:00,
2013-02-13 07:52:00,22.0,18.0,29.75,WSW,248,0.0,0.0,84,0.00,,,0.00,,2013-02-13 13:52:00,
2013-02-13 08:01:00,22.0,18.0,29.75,WSW,248,0.0,0.0,84,0.00,,,0.00,,2013-02-13 14:01:00,
2013-02-13 08:11:00,24.0,20.0,29.75,WSW,248,0.0,0.0,85,0.00,,,0.00,,2013-02-13 14:11:00,
2013-02-13 08:21:00,24.0,20.0,29.75,WSW,248,0.0,0.0,85,0.00,,,0.00,,2013-02-13 14:21:00,
2013-02-13 08:31:00,24.0,20.0,29.75,WSW,242,0.0,0.0,85,0.00,,,0.00,,2013-02-13 14:31:00,
2013-02-13 08:41:00,26.0,21.0,29.75,WSW,250,0.0,0.0,81,0.00,,,0.00,,2013-02-13 14:41:00,
2013-02-13 08:52:00,26.0,21.0,29.75,WSW,250,0.0,0.0,81,0.00,,,0.00,,2013-02-13 14:52:00,
2013-02-13 09:01:00,28.0,22.0,29.75,WSW,249,0.0,0.0,79,0.00,,,0.00,,2013-02-13 15:01:00,
2013-02-13 09:11:00,29.0,20.0,29.75,West,281,0.0,0.0,68,0.00,,,0.00,,2013-02-13 15:11:00,
2013-02-13 09:21:00,29.0,20.0,29.75,West,281,0.0,0.0,68,0.00,,,0.00,,2013-02-13 15:21:00,
2013-02-13 09:32:00,29.0,19.0,29.75,WSW,249,0.0,0.0,65,0.00,,,0.00,,2013-02-13 15:32:00,
2013-02-13 09:42:00,29.0,19.0,29.75,WSW,249,0.0,0.0,65,0.00,,,0.00,,2013-02-13 15:42:00,
2013-02-13 09:52:00,30.0,19.0,29.75,WSW,237,0.0,0.0,62,0.00,,,0.00,,2013-02-13 15:52:00,
2013-02-13 10:01:00,30.0,18.0,29.75,West,265,0.0,0.0,60,0.00,,,0.00,,2013-02-13 16:01:00,
2013-02-13 10:11:00,31.0,18.0,29.75,SW,218,0.0,0.0,59,0.00,,,0.00,,2013-02-13 16:11:00,
2013-02-13 10:21:00,31.0,18.0,29.75,SW,218,0.0,0.0,59,0.00,,,0.00,,2013-02-13 16:21:00,
2013-02-13 10:31:00,31.0,19.0,29.75,WSW,241,5.0,5.0,61,0.00,,,0.00,,2013-02-13 16:31:00,
2013-02-13 10:42:00,31.0,19.0,29.75,WSW,241,5.0,5.0,61,0.00,,,0.00,,2013-02-13 16:42:00,
2013-02-13 10:51:00,34.0,20.0,29.75,WSW,255,0.0,0.0,55,0.00,,,0.00,,2013-02-13 16:51:00,
2013-02-13 11:01:00,34.0,19.0,29.75,West,268,0.0,0.0,54,0.00,,,0.00,,2013-02-13 17:01:00,
2013-02-13 11:11:00,35.0,20.0,29.75,SW,227,0.0,0.0,53,0.00,,,0.00,,2013-02-13 17:11:00,
2013-02-13 11:21:00,35.0,20.0,29.75,SW,227,0.0,0.0,53,0.00,,,0.00,,2013-02-13 17:21:00,
2013-02-13 11:31:00,35.0,19.0,29.75,West,259,0.0,0.0,52,0.00,,,0.00,,2013-02-13 17:31:00,
2013-02-13 11:52:00,36.0,20.0,29.75,WSW,239,0.0,0.0,52,0.00,,,0.00,,2013-02-13 17:52:00,
2013-02-13 12:01:00,36.0,20.0,29.75,WSW,249,14.0,14.0,51,0.00,,,0.00,,2013-02-13 18:01:00,
2013-02-13 12:11:00,36.0,20.0,29.75,West,267,10.0,10.0,51,0.00,,,0.00,,2013-02-13 18:11:00,
2013-02-13 12:22:00,36.0,20.0,29.75,West,267,10.0,10.0,51,0.00,,,0.00,,2013-02-13 18:22:00,
2013-02-13 12:32:00,36.0,20.0,29.75,West,260,0.0,9.0,52,0.00,,,0.00,,2013-02-13 18:32:00,
2013-02-13 12:52:00,38.0,22.0,29.72,SW,216,0.0,0.0,51,0.00,,,0.00,,2013-02-13 18:52:00,
2013-02-13 13:01:00,38.0,22.0,29.72,SW,216,0.0,0.0,51,0.00,,,0.00,,2013-02-13 19:01:00,
2013-02-13 13:11:00,38.0,22.0,29.72,WSW,256,0.0,5.0,51,0.00,,,0.00,,2013-02-13 19:11:00,
2013-02-13 13:21:00,38.0,22.0,29.72,WSW,256,0.0,5.0,51,0.00,,,0.00,,2013-02-13 19:21:00,
2013-02-13 13:32:00,38.0,22.0,29.72,WSW,244,10.0,10.0,51,0.00,,,0.00,,2013-02-13 19:32:00,
2013-02-13 13:42:00,38.0,22.0,29.72,WSW,244,10.0,10.0,51,0.00,,,0.00,,2013-02-13 19:42:00,
2013-02-13 13:52:00,39.0,22.0,29.72,SSW,205,9.0,13.0,51,0.00,,,0.00,,2013-02-13 19:52:00,
2013-02-13 14:02:00,39.0,22.0,29.72,WSW,250,8.0,8.0,50,0.00,,,0.00,,2013-02-13 20:02:00,
2013-02-13 14:11:00,40.0,23.0,29.69,SW,232,9.0,9.0,50,0.00,,,0.00,,2013-02-13 20:11:00,
2013-02-13 14:21:00,40.0,23.0,29.69,SW,232,9.0,9.0,50,0.00,,,0.00,,2013-02-13 20:21:00,
2013-02-13 14:31:00,39.0,22.0,29.69,WSW,242,5.0,9.0,50,0.00,,,0.00,,2013-02-13 20:31:00,
2013-02-13 14:42:00,40.0,23.0,29.69,SW,231,8.0,8.0,50,0.00,,,0.00,,2013-02-13 20:42:00,
2013-02-13 14:52:00,40.0,23.0,29.69,SW,231,8.0,8.0,50,0.00,,,0.00,,2013-02-13 20:52:00,
2013-02-13 15:01:00,40.0,24.0,29.69,WSW,238,8.0,12.0,52,0.00,,,0.00,,2013-02-13 21:01:00,
2013-02-13 15:11:00,40.0,24.0,29.69,WSW,238,8.0,12.0,52,0.00,,,0.00,,2013-02-13 21:11:00,
2013-02-13 15:21:00,39.0,23.0,29.69,WSW,241,7.0,11.0,52,0.00,,,0.00,,2013-02-13 21:21:00,
2013-02-13 15:31:00,40.0,24.0,29.69,SW,224,0.0,0.0,53,0.00,,,0.00,,2013-02-13 21:31:00,
2013-02-13 15:42:00,40.0,24.0,29.66,SSW,192,6.0,10.0,52,0.00,,,0.00,,2013-02-13 21:42:00,
2013-02-13 15:52:00,40.0,24.0,29.66,SSW,192,6.0,10.0,52,0.00,,,0.00,,2013-02-13 21:52:00,
2013-02-13 16:02:00,40.0,24.0,29.66,South,173,0.0,0.0,53,0.00,,,0.00,,2013-02-13 22:02:00,
2013-02-13 16:11:00,41.0,26.0,29.66,SW,222,4.0,8.0,55,0.00,,,0.00,,2013-02-13 22:11:00,
2013-02-13 16:21:00,41.0,26.0,29.66,SW,222,4.0,8.0,55,0.00,,,0.00,,2013-02-13 22:21:00,
2013-02-13 16:31:00,42.0,27.0,29.66,South,185,5.0,5.0,54,0.00,,,0.00,,2013-02-13 22:31:00,
2013-02-13 16:42:00,42.0,27.0,29.66,South,185,5.0,5.0,54,0.00,,,0.00,,2013-02-13 22:42:00,
2013-02-13 16:52:00,41.0,24.0,29.66,WSW,240,4.0,8.0,51,0.00,,,0.00,,2013-02-13 22:52:00,
2013-02-13 17:01:00,41.0,24.0,29.66,SSW,205,0.0,0.0,51,0.00,,,0.00,,2013-02-13 23:01:00,
2013-02-13 17:11:00,39.0,24.0,29.66,South,187,0.0,0.0,54,0.00,,,0.00,,2013-02-13 23:11:00,
2013-02-13 17:21:00,39.0,24.0,29.66,South,187,0.0,0.0,54,0.00,,,0.00,,2013-02-13 23:21:00,
2013-02-13 17:32:00,39.0,24.0,29.66,South,188,0.0,0.0,55,0.00,,,0.00,,2013-02-13 23:32:00,
2013-02-13 17:52:00,38.0,25.0,29.66,South,182,0.0,0.0,59,0.00,,,0.00,,2013-02-13 23:52:00,
2013-02-13 18:01:00,37.0,25.0,29.66,South,170,0.0,0.0,62,0.00,,,0.00,,2013-02-14 00:01:00,
2013-02-13 18:11:00,37.0,25.0,29.66,South,170,0.0,0.0,62,0.00,,,0.00,,2013-02-14 00:11:00,
2013-02-13 18:21:00,37.0,27.0,29.66,SSW,196,0.0,0.0,66,0.00,,,0.00,,2013-02-14 00:21:00,
2013-02-13 18:32:00,37.0,27.0,29.66,SW,224,0.0,0.0,67,0.00,,,0.00,,2013-02-14 00:32:00,
2013-02-13 18:42:00,37.0,27.0,29.66,SW,224,0.0,0.0,67,0.00,,,0.00,,2013-02-14 00:42:00,
2013-02-13 18:52:00,37.0,28.0,29.63,SSW,207,0.0,0.0,69,0.00,,,0.00,,2013-02-14 00:52:00,
2013-02-13 19:01:00,37.0,28.0,29.63,South,181,0.0,0.0,69,0.00,,,0.00,,2013-02-14 01:01:00,
2013-02-13 19:11:00,37.0,28.0,29.63,SSE,151,0.0,0.0,69,0.00,,,0.00,,2013-02-14 01:11:00,
2013-02-13 19:21:00,37.0,28.0,29.63,SSE,151,0.0,0.0,69,0.00,,,0.00,,2013-02-14 01:21:00,
2013-02-13 19:31:00,38.0,29.0,29.63,SSE,149,4.0,4.0,69,0.00,,,0.00,,2013-02-14 01:31:00,
2013-02-13 19:41:00,38.0,29.0,29.63,SSE,149,4.0,4.0,69,0.00,,,0.00,,2013-02-14 01:41:00,
2013-02-13 19:52:00,37.0,28.0,29.63,SW,215,0.0,0.0,69,0.00,,,0.00,,2013-02-14 01:52:00,
2013-02-13 20:01:00,37.0,28.0,29.63,SSE,147,0.0,0.0,70,0.00,,,0.00,,2013-02-14 02:01:00,
2013-02-13 20:11:00,37.0,28.0,29.63,WSW,244,0.0,6.0,71,0.00,,,0.00,,2013-02-14 02:11:00,
2013-02-13 20:21:00,37.0,28.0,29.63,WSW,244,0.0,6.0,71,0.00,,,0.00,,2013-02-14 02:21:00,
2013-02-13 20:31:00,37.0,28.0,29.63,SW,228,0.0,5.0,71,0.00,,,0.00,,2013-02-14 02:31:00,
2013-02-13 20:41:00,37.0,28.0,29.63,SW,228,0.0,5.0,71,0.00,,,0.00,,2013-02-14 02:41:00,
2013-02-13 20:52:00,37.0,28.0,29.63,SW,228,0.0,5.0,71,0.00,,,0.00,,2013-02-14 02:52:00,
2013-02-13 21:02:00,37.0,29.0,29.60,SW,228,0.0,0.0,73,0.00,,,0.00,,2013-02-14 03:02:00,
2013-02-13 21:11:00,36.0,29.0,29.60,West,264,0.0,0.0,74,0.00,,,0.00,,2013-02-14 03:11:00,
2013-02-13 21:21:00,36.0,29.0,29.60,West,264,0.0,0.0,74,0.00,,,0.00,,2013-02-14 03:21:00,
2013-02-13 21:31:00,36.0,29.0,29.60,West,264,0.0,0.0,74,0.00,,,0.00,,2013-02-14 03:31:00,
2013-02-13 21:42:00,36.0,29.0,29.60,West,264,0.0,0.0,74,0.00,,,0.00,,2013-02-14 03:42:00,
2013-02-13 21:52:00,36.0,29.0,29.60,South,172,0.0,0.0,75,0.00,,,0.00,,2013-02-14 03:52:00,
2013-02-13 22:01:00,36.0,29.0,29.60,SW,215,0.0,0.0,75,0.00,,,0.00,,2013-02-14 04:01:00,
2013-02-13 22:12:00,36.0,29.0,29.57,SW,217,0.0,0.0,76,0.00,,,0.00,,2013-02-14 04:12:00,
2013-02-13 22:21:00,36.0,29.0,29.57,SW,217,0.0,0.0,76,0.00,,,0.00,,2013-02-14 04:21:00,
2013-02-13 22:31:00,36.0,29.0,29.57,WSW,243,0.0,0.0,77,0.00,,,0.00,,2013-02-14 04:31:00,
2013-02-13 22:41:00,36.0,29.0,29.57,WSW,243,0.0,0.0,77,0.00,,,0.00,,2013-02-14 04:41:00,
2013-02-13 22:52:00,36.0,29.0,29.57,SW,221,0.0,0.0,77,0.00,,,0.00,,2013-02-14 04:52:00,
2013-02-13 23:01:00,36.0,29.0,29.57,WSW,243,0.0,0.0,76,0.00,,,0.00,,2013-02-14 05:01:00,
2013-02-13 23:11:00,36.0,29.0,29.57,WSW,243,0.0,0.0,76,0.00,,,0.00,,2013-02-14 05:11:00,
2013-02-13 23:21:00,37.0,28.0,29.57,SW,230,0.0,0.0,71,0.00,,,0.00,,2013-02-14 05:21:00,
2013-02-13 23:31:00,37.0,27.0,29.57,West,261,0.0,0.0,67,0.00,,,0.00,,2013-02-14 05:31:00,
2013-02-13 23:41:00,37.0,27.0,29.57,West,261,0.0,0.0,67,0.00,,,0.00,,2013-02-14 05:41:00,
2013-02-13 23:52:00,37.0,26.0,29.60,West,274,0.0,0.0,64,0.00,,,0.00,,2013-02-14 05:52:00,